Time;durP1;ratioP1;P1;durP2;ratioP2;P2;SDS_P1;SDS_P2;PMS_P1;PMS_P2;Temp;Humidity;BMP_temperature;BMP_pressure;BME280_temperature;BME280_humidity;BME280_pressure;Samples;Min_cycle;Max_cycle;Signal;HPM_P1;HPM_P2
2022/08/24 00:00:06;;;;;;;3.23;1.50;;;20.90;99.90;;;;;;5031536;28;20406;-73
2022/08/24 00:02:32;;;;;;;3.60;1.30;;;20.90;99.90;;;;;;5031330;28;20234;-73
2022/08/24 00:04:58;;;;;;;1.90;1.40;;;20.90;99.90;;;;;;5033713;28;20811;-73
2022/08/24 00:07:24;;;;;;;2.50;1.23;;;20.90;99.90;;;;;;5022807;28;20192;-73
2022/08/24 00:09:49;;;;;;;3.00;1.30;;;20.90;99.90;;;;;;5015710;28;20563;-73
2022/08/24 00:12:16;;;;;;;1.70;1.10;;;20.90;99.90;;;;;;5014315;28;20223;-73
2022/08/24 00:14:41;;;;;;;2.70;1.90;;;20.80;99.90;;;;;;5013930;28;20295;-73
2022/08/24 00:17:07;;;;;;;1.40;1.30;;;20.80;99.90;;;;;;5025291;28;20465;-73
2022/08/24 00:19:32;;;;;;;1.70;1.37;;;20.70;99.90;;;;;;5035336;28;20167;-74
2022/08/24 00:21:59;;;;;;;1.70;1.20;;;20.70;99.90;;;;;;5035111;28;20167;-74
2022/08/24 00:24:25;;;;;;;3.63;1.60;;;20.70;99.90;;;;;;5034929;28;20176;-73
2022/08/24 00:26:52;;;;;;;2.23;1.40;;;20.60;99.90;;;;;;5027253;28;20430;-73
2022/08/24 00:29:19;;;;;;;1.63;1.47;;;20.60;99.90;;;;;;5015288;28;20472;-73
2022/08/24 00:31:46;;;;;;;3.07;1.70;;;20.60;99.90;;;;;;5013787;28;20469;-74
2022/08/24 00:34:12;;;;;;;1.67;1.57;;;20.50;99.90;;;;;;5030219;28;21056;-74
2022/08/24 00:36:39;;;;;;;1.33;1.20;;;20.50;99.90;;;;;;5019970;28;20414;-74
2022/08/24 00:39:05;;;;;;;2.37;1.57;;;20.50;99.90;;;;;;5034868;28;20410;-73
2022/08/24 00:41:31;;;;;;;3.03;1.43;;;20.50;99.90;;;;;;5034782;28;20426;-73
2022/08/24 00:43:59;;;;;;;1.60;1.50;;;20.50;99.90;;;;;;5034653;28;20852;-73
2022/08/24 00:46:31;;;;;;;5.73;2.57;;;20.50;99.90;;;;;;5030816;28;20168;-73
2022/08/24 00:49:03;;;;;;;1.97;1.77;;;20.50;99.90;;;;;;5014860;28;20412;-73
2022/08/24 00:51:57;;;;;;;3.70;1.43;;;20.50;99.90;;;;;;5014713;28;20489;-73
2022/08/24 00:54:27;;;;;;;3.13;1.63;;;20.50;99.90;;;;;;5042140;28;20478;-73
2022/08/24 00:56:57;;;;;;;1.87;1.40;;;20.40;99.90;;;;;;5021405;28;20433;-73
2022/08/24 00:59:27;;;;;;;1.50;1.33;;;20.40;99.90;;;;;;5034173;28;20423;-73
2022/08/24 01:01:55;;;;;;;2.40;1.53;;;20.40;99.90;;;;;;5034225;28;20417;-73
2022/08/24 01:04:28;;;;;;;3.17;1.53;;;20.40;99.90;;;;;;5033983;28;20419;-73
2022/08/24 01:06:55;;;;;;;2.03;1.63;;;20.30;99.90;;;;;;5027524;28;20431;-73
2022/08/24 01:09:21;;;;;;;2.67;1.90;;;20.30;99.90;;;;;;5014508;28;20411;-73
2022/08/24 01:11:47;;;;;;;2.23;1.40;;;20.30;99.90;;;;;;5014393;28;20794;-74
2022/08/24 01:14:12;;;;;;;1.63;1.53;;;20.30;99.90;;;;;;5014048;28;20291;-74
2022/08/24 01:19:38;;;;;;;1.40;1.27;;;20.20;99.90;;;;;;5014402;28;20234;-73
2022/08/24 01:22:19;;;;;;;1.87;1.60;;;20.20;99.90;;;;;;5029364;28;20565;-73
2022/08/24 01:24:46;;;;;;;1.70;1.50;;;20.10;99.90;;;;;;5025295;28;20433;-74
2022/08/24 01:27:14;;;;;;;1.90;1.50;;;20.00;99.90;;;;;;5033928;28;20824;-74
2022/08/24 01:29:41;;;;;;;2.90;1.43;;;20.00;99.90;;;;;;5033961;28;20771;-73
2022/08/24 01:32:07;;;;;;;2.27;1.70;;;19.90;99.90;;;;;;5033773;28;21005;-73
2022/08/24 01:34:33;;;;;;;2.07;1.87;;;19.90;99.90;;;;;;5021067;28;20491;-73
2022/08/24 01:36:59;;;;;;;2.57;1.73;;;19.90;99.90;;;;;;5014117;28;20841;-74
2022/08/24 01:39:45;;;;;;;5.50;1.80;;;19.90;99.90;;;;;;5013975;28;20608;-73
2022/08/24 01:42:13;;;;;;;2.77;1.80;;;19.90;99.90;;;;;;5013882;28;20425;-73
2022/08/24 01:44:40;;;;;;;6.33;1.77;;;19.80;99.90;;;;;;5041034;28;20434;-73
2022/08/24 01:47:08;;;;;;;2.80;1.73;;;19.70;99.90;;;;;;5033588;28;20406;-73
2022/08/24 01:49:37;;;;;;;1.70;1.53;;;19.70;99.90;;;;;;5033527;28;20410;-73
2022/08/24 01:52:06;;;;;;;2.43;1.60;;;19.80;99.90;;;;;;5033284;28;20469;-74
2022/08/24 01:54:33;;;;;;;10.70;6.80;;;19.70;99.90;;;;;;5021463;28;20481;-73
2022/08/24 01:56:59;;;;;;;13.53;10.73;;;19.70;99.90;;;;;;5013656;28;20856;-73
2022/08/24 01:59:25;;;;;;;11.03;8.60;;;19.60;99.90;;;;;;5013559;28;20415;-71
2022/08/24 02:01:55;;;;;;;2.70;2.50;;;19.60;99.90;;;;;;5013525;28;20445;-73
2022/08/24 02:04:21;;;;;;;2.80;1.87;;;19.50;99.90;;;;;;5037853;28;20480;-72
2022/08/24 02:06:47;;;;;;;2.33;1.70;;;19.50;99.90;;;;;;5033208;28;20900;-72
2022/08/24 02:09:12;;;;;;;2.13;1.80;;;19.50;99.90;;;;;;5033239;28;20427;-73
2022/08/24 02:11:38;;;;;;;3.30;3.00;;;19.50;99.90;;;;;;5033158;28;20182;-74
2022/08/24 02:14:04;;;;;;;2.70;2.20;;;19.50;99.90;;;;;;5025461;28;20691;-73
2022/08/24 02:16:30;;;;;;;1.90;1.70;;;19.40;99.90;;;;;;5028242;28;20415;-74
2022/08/24 02:18:57;;;;;;;2.00;1.63;;;19.40;99.90;;;;;;5013216;28;20176;-74
2022/08/24 02:21:23;;;;;;;2.53;1.33;;;19.30;99.90;;;;;;5013173;28;20246;-75
2022/08/24 02:23:49;;;;;;;2.77;1.70;;;19.30;99.90;;;;;;5017758;28;20855;-74
2022/08/24 02:26:16;;;;;;;4.37;2.30;;;19.30;99.90;;;;;;5032571;28;20973;-74
2022/08/24 02:28:41;;;;;;;2.20;1.90;;;19.30;99.90;;;;;;5032667;28;20407;-73
2022/08/24 02:31:11;;;;;;;3.67;1.80;;;19.20;99.90;;;;;;5032619;28;20406;-72
2022/08/24 02:33:38;;;;;;;1.90;1.63;;;19.20;99.90;;;;;;5029485;28;20196;-72
2022/08/24 02:36:05;;;;;;;2.40;1.50;;;19.20;99.90;;;;;;5012598;28;20463;-72
2022/08/24 02:38:30;;;;;;;2.73;1.50;;;19.20;99.90;;;;;;5012882;28;20419;-72
2022/08/24 02:40:56;;;;;;;1.93;1.40;;;19.20;99.90;;;;;;5011666;28;21164;-72
2022/08/24 02:43:23;;;;;;;1.73;1.63;;;19.10;99.90;;;;;;5013160;28;20194;-72
2022/08/24 02:45:49;;;;;;;6.23;2.43;;;19.10;99.90;;;;;;5032001;28;20434;-71
2022/08/24 02:48:15;;;;;;;5.33;4.13;;;19.10;99.90;;;;;;5032380;28;20414;-72
2022/08/24 02:50:44;;;;;;;4.80;3.33;;;19.10;99.90;;;;;;5047603;28;20430;-72
2022/08/24 02:53:12;;;;;;;3.23;2.80;;;19.00;99.90;;;;;;5047513;28;20249;-72
2022/08/24 02:55:40;;;;;;;2.67;1.87;;;19.00;99.90;;;;;;5012802;28;20474;-71
2022/08/24 02:58:06;;;;;;;2.47;2.27;;;19.00;99.90;;;;;;5012573;28;20893;-71
2022/08/24 03:00:31;;;;;;;2.57;2.03;;;19.00;99.90;;;;;;5012524;28;20395;-71
2022/08/24 03:02:57;;;;;;;4.20;2.17;;;19.00;99.90;;;;;;5012485;28;20771;-72
2022/08/24 03:05:23;;;;;;;1.83;1.40;;;18.90;99.90;;;;;;5028577;28;20190;-72
2022/08/24 03:07:49;;;;;;;2.27;1.40;;;18.90;99.90;;;;;;5030988;28;20178;-72
2022/08/24 03:10:14;;;;;;;1.50;1.30;;;18.90;99.90;;;;;;5032241;28;20406;-72
2022/08/24 03:12:40;;;;;;;2.57;1.70;;;18.80;99.90;;;;;;5030749;28;20449;-72
2022/08/24 03:15:10;;;;;;;6.90;2.67;;;18.80;99.90;;;;;;5017679;28;20639;-72
2022/08/24 03:17:36;;;;;;;2.63;1.30;;;18.80;99.90;;;;;;5012318;28;20602;-72
2022/08/24 03:20:04;;;;;;;2.23;1.60;;;18.80;99.90;;;;;;5012289;28;20820;-72
2022/08/24 03:22:30;;;;;;;1.67;1.50;;;18.80;99.90;;;;;;5012296;28;20769;-72
2022/08/24 03:24:56;;;;;;;2.03;1.93;;;18.70;99.90;;;;;;5024066;28;20445;-72
2022/08/24 03:27:22;;;;;;;1.77;1.50;;;18.60;99.90;;;;;;5031943;28;20221;-72
2022/08/24 03:29:47;;;;;;;6.10;2.10;;;18.60;99.90;;;;;;5031966;28;20418;-72
2022/08/24 03:32:13;;;;;;;2.60;1.63;;;18.60;99.90;;;;;;5047168;28;20191;-72
2022/08/24 03:34:39;;;;;;;2.63;2.10;;;18.50;99.90;;;;;;5021840;28;20195;-72
2022/08/24 03:37:05;;;;;;;3.60;1.80;;;18.50;99.90;;;;;;5027309;28;20208;-72
2022/08/24 03:39:31;;;;;;;2.87;2.27;;;18.40;99.90;;;;;;5012723;28;20176;-72
2022/08/24 03:41:56;;;;;;;2.90;1.60;;;18.50;99.90;;;;;;5016223;28;20395;-72
2022/08/24 03:44:24;;;;;;;2.33;1.70;;;18.40;99.90;;;;;;5022649;28;20441;-72
2022/08/24 03:46:50;;;;;;;2.40;1.70;;;18.40;99.90;;;;;;5035885;28;20172;-72
2022/08/24 03:49:16;;;;;;;2.50;1.83;;;18.40;99.90;;;;;;5035827;28;20411;-72
2022/08/24 03:51:41;;;;;;;2.20;1.73;;;18.40;99.90;;;;;;5035817;28;20455;-72
2022/08/24 03:54:08;;;;;;;2.47;1.60;;;18.30;99.90;;;;;;5030601;28;20192;-72
2022/08/24 03:56:34;;;;;;;3.33;1.90;;;18.30;99.90;;;;;;5015794;28;20577;-72
2022/08/24 03:58:59;;;;;;;1.87;1.70;;;18.20;99.90;;;;;;5015966;28;20403;-72
2022/08/24 04:01:25;;;;;;;2.70;2.10;;;18.20;99.90;;;;;;5014490;28;20403;-72
2022/08/24 04:03:52;;;;;;;3.20;1.77;;;18.20;99.90;;;;;;5018503;28;20180;-72
2022/08/24 04:06:20;;;;;;;3.00;1.70;;;18.20;99.90;;;;;;5035294;28;20633;-72
2022/08/24 04:08:45;;;;;;;2.57;2.00;;;18.10;99.90;;;;;;5035390;28;20806;-72
2022/08/24 04:11:13;;;;;;;3.53;2.13;;;18.10;99.90;;;;;;5035465;28;20406;-72
2022/08/24 04:13:39;;;;;;;2.73;2.50;;;18.00;99.90;;;;;;5049680;28;20664;-72
2022/08/24 04:16:11;;;;;;;2.00;1.90;;;18.00;99.90;;;;;;5015072;28;20449;-72
2022/08/24 04:18:37;;;;;;;2.70;1.93;;;17.90;99.90;;;;;;5015623;28;20430;-73
2022/08/24 04:21:03;;;;;;;2.50;2.00;;;17.90;99.90;;;;;;5015416;28;20441;-72
2022/08/24 04:23:30;;;;;;;4.73;2.40;;;17.90;99.90;;;;;;5015463;28;20196;-72
2022/08/24 04:26:02;;;;;;;5.50;2.17;;;17.90;99.90;;;;;;5033957;28;20426;-72
2022/08/24 04:28:30;;;;;;;3.50;2.27;;;17.90;99.90;;;;;;5035047;28;20413;-72
2022/08/24 04:30:56;;;;;;;2.40;1.97;;;17.90;99.90;;;;;;5050338;28;20406;-72
2022/08/24 04:33:22;;;;;;;3.00;1.90;;;17.90;99.90;;;;;;5034922;28;20428;-72
2022/08/24 04:35:48;;;;;;;3.30;2.03;;;17.90;99.90;;;;;;5016567;28;20463;-72
2022/08/24 04:38:18;;;;;;;2.93;1.77;;;17.90;99.90;;;;;;5013825;28;20446;-72
2022/08/24 04:40:45;;;;;;;2.20;1.97;;;17.90;99.90;;;;;;5015077;28;20403;-72
2022/08/24 04:43:13;;;;;;;2.13;1.83;;;17.90;99.90;;;;;;5013705;28;20847;-72
2022/08/24 04:45:41;;;;;;;1.93;1.63;;;18.00;99.90;;;;;;5030906;28;20875;-72
2022/08/24 04:48:07;;;;;;;2.53;1.77;;;17.90;99.90;;;;;;5034732;28;20896;-72
2022/08/24 04:50:34;;;;;;;4.00;1.67;;;17.90;99.90;;;;;;5034436;28;20564;-72
2022/08/24 04:53:00;;;;;;;2.53;2.20;;;18.00;99.90;;;;;;5018668;28;20450;-72
2022/08/24 04:55:26;;;;;;;2.13;1.93;;;18.00;99.90;;;;;;5014424;28;20453;-72
2022/08/24 04:57:51;;;;;;;2.27;2.00;;;18.00;99.90;;;;;;5013509;28;20411;-72
2022/08/24 05:00:17;;;;;;;3.57;2.40;;;17.90;99.90;;;;;;5016130;28;20263;-72
2022/08/24 05:02:43;;;;;;;2.20;1.80;;;17.90;99.90;;;;;;5034498;28;20226;-72
2022/08/24 05:05:09;;;;;;;2.20;2.00;;;17.90;99.90;;;;;;5034403;28;20168;-72
2022/08/24 05:07:36;;;;;;;4.40;2.17;;;17.90;99.90;;;;;;5034400;28;20239;-72
2022/08/24 05:10:02;;;;;;;3.53;2.13;;;17.90;99.90;;;;;;5034279;28;20414;-72
2022/08/24 05:12:28;;;;;;;3.57;2.20;;;17.90;99.90;;;;;;5014717;28;20449;-72
2022/08/24 05:14:54;;;;;;;2.80;2.43;;;18.00;99.90;;;;;;5014325;28;20459;-72
2022/08/24 05:17:20;;;;;;;2.50;1.80;;;18.00;99.90;;;;;;5014427;28;20529;-72
2022/08/24 05:19:45;;;;;;;2.70;2.00;;;18.10;99.90;;;;;;5029517;28;20407;-72
2022/08/24 05:22:11;;;;;;;6.53;2.43;;;18.10;99.90;;;;;;5030756;28;20564;-72
2022/08/24 05:24:36;;;;;;;2.33;2.00;;;18.20;99.90;;;;;;5033686;28;20171;-72
2022/08/24 05:27:02;;;;;;;2.13;1.63;;;18.20;99.90;;;;;;5032665;28;20175;-72
2022/08/24 05:29:28;;;;;;;2.37;2.17;;;18.20;99.90;;;;;;5032726;28;20171;-72
2022/08/24 05:31:54;;;;;;;2.63;1.93;;;18.30;99.90;;;;;;5019481;28;20853;-72
2022/08/24 05:34:19;;;;;;;3.30;1.70;;;18.30;99.90;;;;;;5013781;28;20531;-72
2022/08/24 05:36:45;;;;;;;2.40;2.20;;;18.40;99.90;;;;;;5012732;28;20168;-72
2022/08/24 05:39:12;;;;;;;3.27;2.10;;;18.40;99.90;;;;;;5013923;28;20633;-72
2022/08/24 05:41:40;;;;;;;2.60;2.00;;;18.60;99.90;;;;;;5025399;28;20171;-72
2022/08/24 05:44:06;;;;;;;3.30;3.00;;;18.70;99.90;;;;;;5033658;28;20443;-72
2022/08/24 05:46:31;;;;;;;2.47;2.03;;;19.00;99.90;;;;;;5033401;28;20430;-72
2022/08/24 05:48:58;;;;;;;2.70;2.50;;;19.30;99.90;;;;;;5032397;28;20171;-72
2022/08/24 05:51:24;;;;;;;2.87;2.37;;;19.70;99.90;;;;;;5022422;28;20223;-72
2022/08/24 05:53:50;;;;;;;3.77;2.10;;;20.10;99.90;;;;;;5013465;28;20466;-72
2022/08/24 05:56:17;;;;;;;2.07;1.87;;;20.60;99.90;;;;;;5013448;28;20366;-72
2022/08/24 05:58:43;;;;;;;7.60;3.07;;;21.00;99.90;;;;;;5028786;28;20419;-72
2022/08/24 06:01:12;;;;;;;2.73;2.23;;;21.50;99.90;;;;;;5019279;28;20441;-72
2022/08/24 06:03:39;;;;;;;2.80;2.60;;;21.90;99.90;;;;;;5032980;28;20427;-72
2022/08/24 06:06:07;;;;;;;7.40;6.17;;;22.40;99.90;;;;;;5048346;28;20449;-72
2022/08/24 06:08:38;;;;;;;3.10;2.60;;;22.90;99.90;;;;;;5033147;28;20403;-72
2022/08/24 06:11:03;;;;;;;4.30;2.90;;;23.40;99.90;;;;;;5026511;28;20473;-72
2022/08/24 06:13:30;;;;;;;6.30;3.53;;;23.90;99.90;;;;;;5013285;28;20443;-72
2022/08/24 06:16:08;;;;;;;4.53;3.27;;;24.50;99.90;;;;;;5013147;28;20501;-72
2022/08/24 06:18:34;;;;;;;2.60;2.40;;;25.00;99.90;;;;;;5013338;28;20430;-73
2022/08/24 06:21:08;;;;;;;10.27;3.00;;;25.40;99.90;;;;;;5018802;28;20987;-73
2022/08/24 06:23:35;;;;;;;4.70;3.23;;;25.90;99.90;;;;;;5048177;28;20430;-73
2022/08/24 06:28:45;;;;;;;6.77;3.43;;;26.80;99.90;;;;;;5033155;28;20428;-72
2022/08/24 06:31:11;;;;;;;5.17;3.20;;;27.20;99.90;;;;;;5040953;28;20924;-73
2022/08/24 06:33:36;;;;;;;3.53;2.67;;;27.50;99.90;;;;;;5013006;28;20191;-72
2022/08/24 06:36:02;;;;;;;4.90;3.33;;;27.90;99.90;;;;;;5012631;28;20218;-73
2022/08/24 06:38:29;;;;;;;4.10;3.27;;;28.40;99.90;;;;;;5012843;28;20164;-73
2022/08/24 06:40:55;;;;;;;6.47;3.50;;;28.70;99.90;;;;;;5017184;28;20172;-73
2022/08/24 06:43:21;;;;;;;5.97;3.53;;;29.10;97.90;;;;;;5032492;28;20472;-73
2022/08/24 06:45:46;;;;;;;3.63;3.03;;;29.60;95.00;;;;;;5032326;28;20247;-73
2022/08/24 06:48:12;;;;;;;4.17;3.77;;;30.20;91.40;;;;;;5032475;28;20489;-73
2022/08/24 06:50:38;;;;;;;6.83;3.10;;;30.40;89.30;;;;;;5015253;28;20188;-73
2022/08/24 06:53:04;;;;;;;3.80;3.40;;;30.70;84.70;;;;;;5012480;28;20184;-73
2022/08/24 06:55:29;;;;;;;3.60;3.27;;;30.90;82.60;;;;;;5012015;28;20463;-73
2022/08/24 06:57:55;;;;;;;6.30;4.13;;;31.30;78.00;;;;;;5012652;28;20168;-73
2022/08/24 07:00:21;;;;;;;4.40;3.87;;;31.10;76.30;;;;;;5026473;28;20655;-73
2022/08/24 07:02:47;;;;;;;4.83;4.03;;;30.90;75.70;;;;;;5032258;28;20669;-73
2022/08/24 07:05:13;;;;;;;3.90;3.43;;;30.70;75.50;;;;;;5032019;28;20430;-73
2022/08/24 07:07:38;;;;;;;6.30;3.23;;;30.70;77.90;;;;;;5032176;28;20174;-73
2022/08/24 07:10:07;;;;;;;4.37;2.93;;;31.20;74.40;;;;;;5020415;28;20226;-73
2022/08/24 07:12:33;;;;;;;4.30;3.47;;;31.60;74.10;;;;;;5011083;28;20203;-73
2022/08/24 07:14:58;;;;;;;3.50;3.20;;;32.40;70.90;;;;;;5011248;28;20455;-73
2022/08/24 07:17:24;;;;;;;3.60;2.90;;;32.90;68.30;;;;;;5012423;28;20555;-73
2022/08/24 07:19:50;;;;;;;7.07;4.00;;;33.70;64.70;;;;;;5021582;28;20163;-73
2022/08/24 07:22:15;;;;;;;3.67;3.37;;;34.10;62.00;;;;;;5032021;28;20575;-73
2022/08/24 07:24:41;;;;;;;4.80;4.07;;;34.90;57.80;;;;;;5031714;28;20163;-73
2022/08/24 07:27:06;;;;;;;4.50;3.83;;;35.80;55.60;;;;;;5032046;28;20217;-73
2022/08/24 07:29:32;;;;;;;4.50;3.70;;;35.80;55.60;;;;;;5024993;28;20180;-74
2022/08/24 07:31:58;;;;;;;5.60;4.03;;;36.20;54.20;;;;;;5027274;28;20166;-73
2022/08/24 07:34:24;;;;;;;5.07;3.80;;;36.60;51.70;;;;;;5011817;28;20199;-73
2022/08/24 07:36:51;;;;;;;6.33;3.70;;;36.60;51.40;;;;;;5011910;28;20411;-74
2022/08/24 07:39:16;;;;;;;4.97;4.00;;;36.30;50.30;;;;;;5016265;28;20234;-73
2022/08/24 07:41:43;;;;;;;5.23;4.10;;;35.70;49.90;;;;;;5031834;28;20393;-73
2022/08/24 07:44:11;;;;;;;4.50;3.90;;;35.00;51.60;;;;;;5031598;28;20187;-73
2022/08/24 07:46:38;;;;;;;3.50;2.77;;;34.80;51.60;;;;;;5031558;28;20481;-73
2022/08/24 07:49:04;;;;;;;4.83;3.77;;;34.60;53.20;;;;;;5029398;28;20432;-73
2022/08/24 07:51:30;;;;;;;3.47;3.17;;;34.70;53.10;;;;;;5012048;28;20419;-73
2022/08/24 07:53:56;;;;;;;3.30;3.03;;;34.40;54.50;;;;;;5011887;28;20823;-73
2022/08/24 07:56:22;;;;;;;4.40;3.20;;;34.10;54.50;;;;;;5011677;28;20486;-73
2022/08/24 07:58:47;;;;;;;5.70;3.60;;;33.70;53.10;;;;;;5011947;28;20207;-73
2022/08/24 08:01:13;;;;;;;5.53;4.13;;;33.10;53.30;;;;;;5043503;28;20827;-73
2022/08/24 08:03:38;;;;;;;6.30;3.73;;;32.50;53.90;;;;;;5011846;28;20192;-73
2022/08/24 08:06:07;;;;;;;5.30;2.93;;;32.00;56.50;;;;;;5011611;28;20247;-74
2022/08/24 08:08:38;;;;;;;4.77;3.90;;;31.50;57.70;;;;;;5011789;28;20195;-72
2022/08/24 08:11:05;;;;;;;4.00;2.70;;;31.20;61.60;;;;;;4992335;28;20407;-73
2022/08/24 08:13:31;;;;;;;5.50;2.90;;;30.90;62.60;;;;;;4992099;28;20558;-73
2022/08/24 08:15:58;;;;;;;4.73;3.43;;;30.70;63.90;;;;;;4991903;28;20542;-74
2022/08/24 08:18:24;;;;;;;3.47;2.83;;;30.70;68.60;;;;;;4992290;28;20248;-74
2022/08/24 08:20:49;;;;;;;4.23;3.30;;;30.90;66.30;;;;;;5028264;28;20947;-74
2022/08/24 08:26:01;;;;;;;2.67;2.47;;;31.60;64.10;;;;;;5033593;28;20610;-73
2022/08/24 08:28:31;;;;;;;2.53;2.33;;;32.10;65.40;;;;;;5034141;28;20441;-74
2022/08/24 08:31:02;;;;;;;4.63;2.87;;;32.90;60.60;;;;;;5020455;28;20827;-74
2022/08/24 08:33:28;;;;;;;4.67;2.90;;;33.90;57.80;;;;;;5031888;28;20442;-73
2022/08/24 08:36:13;;;;;;;4.40;3.10;;;34.90;54.60;;;;;;5034520;28;20794;-73
2022/08/24 08:38:39;;;;;;;3.20;3.00;;;36.50;51.20;;;;;;5047595;28;20422;-74
2022/08/24 08:41:16;;;;;;;3.20;2.90;;;37.60;49.80;;;;;;5015315;28;20419;-74
2022/08/24 08:43:44;;;;;;;4.60;3.20;;;39.10;48.10;;;;;;5030287;28;20433;-74
2022/08/24 08:46:21;;;;;;;4.17;3.17;;;40.70;46.90;;;;;;5014207;28;20393;-73
2022/08/24 08:48:59;;;;;;;3.07;2.80;;;42.00;43.50;;;;;;5028486;28;20454;-74
2022/08/24 08:51:55;;;;;;;3.87;3.57;;;43.40;39.70;;;;;;5006032;28;20777;-73
2022/08/24 08:54:26;;;;;;;4.23;3.43;;;44.30;36.40;;;;;;5014563;28;20430;-73
2022/08/24 08:57:37;;;;;;;3.87;2.77;;;45.30;35.60;;;;;;5030044;28;20866;-74
2022/08/24 09:00:08;;;;;;;3.23;2.93;;;45.80;35.20;;;;;;5023487;28;20478;-74
2022/08/24 09:02:55;;;;;;;3.80;3.37;;;46.70;34.80;;;;;;5025224;28;20433;-75
2022/08/24 09:05:56;;;;;;;3.97;3.53;;;47.40;32.40;;;;;;5014315;28;20946;-75
2022/08/24 09:08:24;;;;;;;3.77;3.47;;;47.70;31.60;;;;;;5018848;28;20415;-74
2022/08/24 09:11:02;;;;;;;3.57;3.27;;;48.00;32.50;;;;;;5014555;28;20410;-74
2022/08/24 09:13:44;;;;;;;3.27;3.07;;;48.60;31.40;;;;;;5012878;28;20427;-74
2022/08/24 09:16:16;;;;;;;3.57;3.33;;;48.80;30.00;;;;;;5013521;28;20808;-74
2022/08/24 09:19:03;;;;;;;5.63;4.23;;;49.60;30.80;;;;;;5008273;28;20399;-73
2022/08/24 09:21:47;;;;;;;3.90;3.63;;;50.10;29.60;;;;;;5033963;28;20388;-73
2022/08/24 09:24:38;;;;;;;3.50;3.30;;;50.80;29.50;;;;;;5033672;28;20788;-74
2022/08/24 09:27:42;;;;;;;5.20;4.90;;;51.00;28.40;;;;;;5019002;28;20442;-74
2022/08/24 09:30:18;;;;;;;4.00;3.70;;;51.60;28.70;;;;;;5003552;28;20438;-74
2022/08/24 09:33:22;;;;;;;4.50;3.87;;;52.10;26.30;;;;;;5007020;28;20463;-74
2022/08/24 09:36:09;;;;;;;4.13;3.73;;;51.90;28.40;;;;;;5017972;28;20463;-74
2022/08/24 09:38:59;;;;;;;4.70;4.30;;;52.30;27.00;;;;;;5021199;28;20420;-75
2022/08/24 09:41:58;;;;;;;3.90;3.70;;;52.40;26.90;;;;;;5011506;28;20432;-75
2022/08/24 09:44:43;;;;;;;4.13;3.93;;;52.80;27.10;;;;;;5003365;28;20834;-73
2022/08/24 09:47:46;;;;;;;4.40;4.20;;;53.30;26.70;;;;;;5014358;28;20422;-73
2022/08/24 09:50:30;;;;;;;4.70;4.30;;;53.40;26.80;;;;;;5012092;28;20426;-72
2022/08/24 09:53:07;;;;;;;4.70;4.33;;;53.50;25.70;;;;;;5012859;28;20461;-72
2022/08/24 09:56:10;;;;;;;4.27;4.07;;;53.60;25.50;;;;;;5013247;28;20450;-72
2022/08/24 09:59:07;;;;;;;4.63;4.37;;;53.70;24.50;;;;;;5023738;28;20439;-74
2022/08/24 10:01:55;;;;;;;4.37;4.10;;;54.00;25.00;;;;;;5028541;28;20442;-72
2022/08/24 10:04:54;;;;;;;4.83;4.37;;;54.00;24.60;;;;;;5004398;28;20978;-71
2022/08/24 10:07:38;;;;;;;5.47;5.07;;;54.10;25.30;;;;;;5005073;28;20472;-72
2022/08/24 10:10:41;;;;;;;4.53;4.23;;;54.40;24.80;;;;;;4993859;28;20399;-72
2022/08/24 10:13:35;;;;;;;4.77;4.47;;;54.70;24.70;;;;;;4997619;28;20453;-72
2022/08/24 10:16:13;;;;;;;5.00;4.70;;;55.00;23.90;;;;;;5000608;28;20506;-72
2022/08/24 10:19:14;;;;;;;4.80;4.40;;;55.10;23.40;;;;;;5021616;28;20410;-72
2022/08/24 10:22:20;;;;;;;6.07;5.77;;;55.20;23.50;;;;;;5004717;28;20423;-72
2022/08/24 10:25:01;;;;;;;5.10;4.80;;;55.20;23.20;;;;;;5005533;28;20405;-72
2022/08/24 10:27:54;;;;;;;5.37;5.07;;;55.20;23.50;;;;;;5011368;28;20430;-72
2022/08/24 10:30:26;;;;;;;4.73;4.33;;;55.40;23.10;;;;;;5004952;28;20399;-73
2022/08/24 10:33:11;;;;;;;4.53;4.33;;;55.10;22.90;;;;;;5028154;28;20496;-72
2022/08/24 10:36:00;;;;;;;4.97;4.70;;;55.20;23.90;;;;;;5012461;28;20545;-72
2022/08/24 10:41:55;;;;;;;5.23;4.97;;;55.30;22.80;;;;;;5032669;28;20891;-73
2022/08/24 10:44:29;;;;;;;5.23;4.93;;;55.60;23.00;;;;;;5032306;28;20401;-73
2022/08/24 10:47:10;;;;;;;5.93;5.53;;;55.70;23.00;;;;;;5031403;28;20408;-73
2022/08/24 10:49:36;;;;;;;6.13;5.83;;;55.90;23.50;;;;;;5012310;28;20402;-72
2022/08/24 10:52:32;;;;;;;6.77;6.47;;;56.10;23.00;;;;;;5012583;28;20422;-72
2022/08/24 10:55:22;;;;;;;6.27;5.43;;;56.60;23.30;;;;;;5012003;28;20195;-72
2022/08/24 10:58:15;;;;;;;5.40;5.10;;;56.90;23.20;;;;;;5019729;28;20418;-72
2022/08/24 11:00:41;;;;;;;5.50;5.20;;;57.20;22.90;;;;;;5032366;28;20398;-72
2022/08/24 11:03:14;;;;;;;6.20;5.87;;;57.40;22.20;;;;;;5032223;28;20468;-72
2022/08/24 11:05:48;;;;;;;6.67;6.27;;;57.60;22.20;;;;;;5026094;28;20419;-72
2022/08/24 11:08:33;;;;;;;6.47;6.10;;;57.20;21.50;;;;;;5012559;28;20399;-72
2022/08/24 11:11:12;;;;;;;5.77;5.37;;;57.30;21.60;;;;;;5011132;28;20477;-72
2022/08/24 11:13:53;;;;;;;5.20;5.00;;;57.10;21.10;;;;;;5012468;28;21006;-72
2022/08/24 11:16:29;;;;;;;5.97;5.67;;;57.00;21.80;;;;;;5022691;28;20453;-74
2022/08/24 11:18:56;;;;;;;6.00;5.70;;;57.10;22.70;;;;;;5032337;28;20956;-72
2022/08/24 11:21:50;;;;;;;5.50;5.30;;;57.60;22.30;;;;;;5032128;28;20397;-71
2022/08/24 11:24:22;;;;;;;6.00;5.80;;;57.70;21.60;;;;;;5031818;28;20465;-73
2022/08/24 11:26:58;;;;;;;5.70;5.40;;;57.60;21.50;;;;;;5017346;28;20419;-72
2022/08/24 11:29:48;;;;;;;6.57;6.27;;;57.90;21.60;;;;;;5012290;28;20391;-72
2022/08/24 11:32:38;;;;;;;6.93;6.53;;;58.40;22.40;;;;;;5012154;28;20481;-72
2022/08/24 11:35:30;;;;;;;6.75;6.45;;;58.70;21.30;;;;;;5011874;28;20187;-72
2022/08/24 11:38:12;;;;;;;6.85;6.55;;;58.90;21.50;;;;;;4992374;28;20164;-72
2022/08/24 11:40:41;;;;;;;7.25;6.88;;;59.00;21.40;;;;;;4992319;28;20161;-72
2022/08/24 11:43:13;;;;;;;7.50;7.10;;;59.30;21.20;;;;;;4992422;28;20188;-72
2022/08/24 11:46:10;;;;;;;7.28;6.88;;;59.40;21.00;;;;;;5001265;28;20258;-72
2022/08/24 11:49:06;;;;;;;8.05;7.72;;;59.50;21.30;;;;;;5030290;28;20186;-71
2022/08/24 11:52:14;;;;;;;7.80;7.50;;;59.90;21.40;;;;;;5031692;28;20527;-72
2022/08/24 11:55:01;;;;;;;7.68;7.38;;;60.00;21.10;;;;;;5031316;28;20195;-72
2022/08/24 11:57:40;;;;;;;6.45;6.25;;;59.70;19.80;;;;;;5027370;28;20202;-72
2022/08/24 12:00:13;;;;;;;7.15;6.85;;;59.20;20.70;;;;;;5012930;28;20183;-72
2022/08/24 12:03:04;;;;;;;6.85;6.55;;;59.00;20.40;;;;;;5015657;28;20175;-72
2022/08/24 12:05:36;;;;;;;7.45;7.15;;;59.40;20.50;;;;;;5018291;28;20309;-73
2022/08/24 12:08:04;;;;;;;6.95;6.65;;;59.70;19.60;;;;;;5035527;28;20174;-72
2022/08/24 12:10:43;;;;;;;7.40;7.10;;;59.20;19.70;;;;;;5035513;28;20562;-72
2022/08/24 12:13:22;;;;;;;8.07;7.68;;;59.50;20.30;;;;;;5050706;28;20256;-72
2022/08/24 12:15:54;;;;;;;7.82;7.53;;;59.70;20.10;;;;;;5029369;28;20643;-73
2022/08/24 12:18:34;;;;;;;8.13;7.72;;;59.80;20.40;;;;;;5015643;28;20541;-74
2022/08/24 12:21:00;;;;;;;7.45;7.15;;;59.90;19.80;;;;;;5015420;28;20167;-72
2022/08/24 12:23:39;;;;;;;7.20;6.90;;;59.70;19.10;;;;;;5014026;28;20274;-72
2022/08/24 12:26:40;;;;;;;6.82;6.53;;;59.40;19.20;;;;;;5022529;28;20173;-72
2022/08/24 12:29:11;;;;;;;6.00;5.70;;;58.80;20.30;;;;;;5015430;28;20183;-72
2022/08/24 12:31:49;;;;;;;7.72;7.25;;;58.90;20.20;;;;;;5035289;28;20273;-73
2022/08/24 12:34:42;;;;;;;6.63;6.32;;;59.00;19.80;;;;;;5034972;28;20185;-72
2022/08/24 12:37:27;;;;;;;6.03;5.73;;;58.90;19.20;;;;;;5018825;28;20179;-72
2022/08/24 12:39:58;;;;;;;5.40;5.20;;;57.80;19.80;;;;;;5015292;28;20399;-72
2022/08/24 12:42:28;;;;;;;5.33;5.13;;;57.50;19.30;;;;;;5015099;28;20924;-71
2022/08/24 12:44:58;;;;;;;7.37;6.90;;;57.10;20.90;;;;;;5014809;28;20415;-73
2022/08/24 12:47:50;;;;;;;5.40;5.20;;;57.10;19.80;;;;;;5031545;28;20418;-73
2022/08/24 12:50:24;;;;;;;4.90;4.60;;;56.80;20.10;;;;;;5034658;28;20428;-73
2022/08/24 12:53:11;;;;;;;5.67;5.27;;;57.30;20.50;;;;;;5034705;28;20517;-71
2022/08/24 12:55:39;;;;;;;5.93;5.63;;;57.70;20.40;;;;;;5031080;28;20493;-71
2022/08/24 12:58:36;;;;;;;5.50;5.10;;;57.70;19.80;;;;;;5014911;28;20790;-72
2022/08/24 13:01:04;;;;;;;6.13;5.87;;;57.80;20.30;;;;;;5014773;28;20501;-72
2022/08/24 13:03:32;;;;;;;5.00;4.80;;;57.90;20.40;;;;;;5014734;28;20454;-73
2022/08/24 13:06:01;;;;;;;5.90;5.60;;;58.00;19.80;;;;;;5019788;28;21005;-73
2022/08/24 13:08:40;;;;;;;4.67;4.37;;;57.80;20.20;;;;;;5032770;28;20509;-73
2022/08/24 13:11:26;;;;;;;4.80;4.60;;;57.10;19.30;;;;;;5034295;28;20397;-72
2022/08/24 13:14:16;;;;;;;4.00;3.80;;;56.50;20.50;;;;;;5049564;28;20477;-72
2022/08/24 13:16:57;;;;;;;3.70;3.50;;;56.30;20.60;;;;;;5023055;28;20426;-72
2022/08/24 13:19:22;;;;;;;3.73;3.53;;;55.90;19.50;;;;;;5014602;28;20414;-72
2022/08/24 13:21:57;;;;;;;4.30;4.00;;;55.00;20.00;;;;;;5014357;28;20413;-72